createdAt,value
2022-09-28T00:00:37.740Z,4.51
2022-09-28T00:03:04.287Z,4.38
2022-09-28T00:05:31.342Z,4.45
2022-09-28T00:07:57.914Z,4.50
2022-09-28T00:10:24.367Z,4.49
2022-09-28T00:12:52.123Z,4.36
2022-09-28T00:15:18.707Z,4.54
2022-09-28T00:17:45.207Z,4.32
2022-09-28T00:20:12.466Z,4.34
2022-09-28T00:22:39.180Z,4.49
2022-09-28T00:25:06.775Z,4.57
2022-09-28T00:27:33.256Z,4.64
2022-09-28T00:30:00.020Z,4.29
2022-09-28T00:32:26.828Z,4.24
2022-09-28T00:34:53.424Z,4.32
2022-09-28T00:37:20.319Z,4.46
2022-09-28T00:39:48.591Z,4.28
2022-09-28T00:42:16.500Z,4.09
2022-09-28T00:44:51.286Z,4.28
2022-09-28T00:47:40.397Z,4.76
2022-09-28T00:50:25.877Z,4.97
2022-09-28T00:53:06.748Z,5.09
2022-09-28T00:56:07.512Z,5.27
2022-09-28T00:58:38.255Z,5.20
2022-09-28T01:01:05.076Z,5.12
2022-09-28T01:03:32.527Z,5.15
2022-09-28T01:06:02.199Z,5.00
2022-09-28T01:08:29.609Z,5.13
2022-09-28T01:10:57.699Z,5.24
2022-09-28T01:13:24.574Z,5.35
2022-09-28T01:16:08.212Z,5.28
2022-09-28T01:18:47.807Z,5.37
2022-09-28T01:21:21.783Z,5.59
2022-09-28T01:24:42.096Z,5.67
2022-09-28T01:27:26.953Z,5.69
2022-09-28T01:30:11.075Z,5.75
2022-09-28T01:32:55.201Z,5.82
2022-09-28T01:35:31.226Z,5.88
2022-09-28T01:38:04.490Z,5.94
2022-09-28T01:40:32.044Z,6.00
2022-09-28T01:43:03.148Z,5.96
2022-09-28T01:45:33.358Z,6.10
2022-09-28T01:48:02.495Z,6.11
2022-09-28T01:50:31.209Z,5.72
2022-09-28T01:53:17.591Z,5.70
2022-09-28T01:55:47.748Z,5.58
2022-09-28T01:58:36.795Z,5.67
2022-09-28T02:01:11.335Z,5.68
2022-09-28T02:03:46.977Z,5.74
2022-09-28T02:06:23.662Z,5.72
2022-09-28T02:08:53.975Z,5.84
2022-09-28T02:11:21.421Z,5.80
2022-09-28T02:13:49.214Z,5.59
2022-09-28T02:16:28.713Z,5.35
2022-09-28T02:18:55.371Z,5.40
2022-09-28T02:21:25.980Z,5.24
2022-09-28T02:23:56.590Z,5.22
2022-09-28T02:26:31.239Z,5.18
2022-09-28T02:28:58.454Z,5.25
2022-09-28T02:31:26.195Z,5.22
2022-09-28T02:33:53.599Z,5.26
2022-09-28T02:36:20.197Z,5.31
2022-09-28T02:38:46.696Z,5.36
2022-09-28T02:41:28.354Z,5.36
2022-09-28T02:44:29.042Z,5.39
2022-09-28T02:47:09.873Z,5.50
2022-09-28T02:49:46.596Z,5.53
2022-09-28T02:53:00.924Z,5.54
2022-09-28T02:56:14.389Z,5.45
2022-09-28T02:58:51.935Z,5.40
2022-09-28T03:01:29.632Z,5.51
2022-09-28T03:04:14.369Z,5.53
2022-09-28T03:06:53.671Z,5.58
2022-09-28T03:09:25.679Z,5.65
2022-09-28T03:11:55.631Z,5.84
2022-09-28T03:14:22.195Z,5.79
2022-09-28T03:16:48.788Z,5.57
2022-09-28T03:19:17.209Z,5.60
2022-09-28T03:21:43.717Z,5.91
2022-09-28T03:24:11.072Z,5.91
2022-09-28T03:26:38.674Z,5.73
2022-09-28T03:29:05.323Z,5.82
2022-09-28T03:31:31.995Z,5.95
2022-09-28T03:33:58.567Z,5.67
2022-09-28T03:36:25.048Z,5.72
2022-09-28T03:38:57.659Z,5.72
2022-09-28T03:41:24.702Z,5.81
2022-09-28T03:43:51.403Z,5.68
2022-09-28T03:46:17.940Z,5.66
2022-09-28T03:48:44.473Z,5.53
2022-09-28T03:51:12.066Z,5.54
2022-09-28T03:53:39.398Z,5.44
2022-09-28T03:56:15.968Z,5.42
2022-09-28T03:58:42.766Z,5.36
2022-09-28T04:01:17.513Z,5.25
2022-09-28T04:03:44.762Z,5.14
2022-09-28T04:06:11.704Z,5.25
2022-09-28T04:08:38.343Z,5.11
2022-09-28T04:11:05.254Z,5.32
2022-09-28T04:13:31.798Z,5.40
2022-09-28T04:15:59.978Z,5.47
2022-09-28T04:18:29.276Z,5.28
2022-09-28T04:21:03.531Z,5.18
2022-09-28T04:23:30.203Z,5.23
2022-09-28T04:25:56.967Z,5.20
2022-09-28T04:28:42.203Z,5.13
2022-09-28T04:31:10.747Z,5.07
2022-09-28T04:33:37.480Z,4.94
2022-09-28T04:36:04.156Z,4.88
2022-09-28T04:38:48.822Z,4.65
2022-09-28T04:41:17.091Z,4.83
2022-09-28T04:43:43.889Z,4.84
2022-09-28T04:46:10.624Z,4.76
2022-09-28T04:48:37.608Z,4.69
2022-09-28T04:51:04.090Z,4.74
2022-09-28T04:53:30.595Z,4.74
2022-09-28T04:55:58.948Z,4.79
2022-09-28T04:58:26.011Z,4.66
2022-09-28T05:00:53.349Z,4.56
2022-09-28T05:03:20.939Z,4.47
2022-09-28T05:05:47.982Z,4.51
2022-09-28T05:08:14.458Z,4.49
2022-09-28T05:10:40.928Z,4.63
2022-09-28T05:13:08.628Z,4.75
2022-09-28T05:15:36.542Z,4.96
2022-09-28T05:18:03.448Z,4.69
2022-09-28T05:20:30.117Z,4.51
2022-09-28T05:22:56.687Z,4.63
2022-09-28T05:25:23.169Z,4.58
2022-09-28T05:27:56.134Z,4.61
2022-09-28T05:30:23.734Z,4.58
2022-09-28T05:32:53.525Z,4.50
2022-09-28T05:35:20.159Z,4.32
2022-09-28T05:37:47.056Z,4.29
2022-09-28T05:40:13.896Z,4.29
2022-09-28T05:42:40.891Z,4.44
2022-09-28T05:45:08.176Z,4.62
2022-09-28T05:47:39.075Z,4.56
2022-09-28T05:50:07.446Z,4.46
2022-09-28T05:52:33.915Z,4.58
2022-09-28T05:55:00.479Z,4.56
2022-09-28T05:57:26.915Z,4.56
2022-09-28T05:59:53.373Z,4.57
2022-09-28T06:02:19.835Z,4.44
2022-09-28T06:04:49.397Z,4.62
2022-09-28T06:07:16.102Z,4.90
2022-09-28T06:09:42.564Z,4.66
2022-09-28T06:12:09.015Z,4.88
2022-09-28T06:14:35.536Z,5.03
2022-09-28T06:17:02.121Z,4.97
2022-09-28T06:19:28.585Z,5.18
2022-09-28T06:21:55.031Z,5.13
2022-09-28T06:24:21.530Z,5.13
2022-09-28T06:26:48.013Z,5.11
2022-09-28T06:29:19.884Z,4.95
2022-09-28T06:31:47.124Z,4.78
2022-09-28T06:34:13.797Z,5.01
2022-09-28T06:36:40.658Z,5.18
2022-09-28T06:39:07.155Z,5.24
2022-09-28T06:41:33.605Z,5.12
2022-09-28T06:44:00.343Z,5.17
2022-09-28T06:46:27.065Z,5.13
2022-09-28T06:48:54.509Z,5.18
2022-09-28T06:51:21.059Z,5.09
2022-09-28T06:53:47.538Z,5.17
2022-09-28T06:56:14.111Z,5.37
2022-09-28T06:58:40.571Z,5.25
2022-09-28T07:01:07.098Z,5.27
2022-09-28T07:03:33.607Z,5.32
2022-09-28T07:06:00.189Z,5.30
2022-09-28T07:08:28.582Z,5.45
2022-09-28T07:10:57.885Z,5.56
2022-09-28T07:13:50.830Z,5.48
2022-09-28T07:16:19.659Z,5.51
2022-09-28T07:18:48.098Z,5.50
2022-09-28T07:21:26.442Z,5.46
2022-09-28T07:23:55.949Z,5.51
2022-09-28T07:26:24.367Z,5.51
2022-09-28T07:28:51.167Z,5.66
2022-09-28T07:31:17.683Z,5.76
2022-09-28T07:33:44.246Z,5.84
2022-09-28T07:36:10.731Z,5.95
2022-09-28T07:38:38.212Z,6.12
2022-09-28T07:41:14.899Z,6.09
2022-09-28T07:43:41.877Z,6.15
2022-09-28T07:46:12.611Z,6.21
2022-09-28T07:48:43.501Z,6.12
2022-09-28T07:51:09.999Z,6.15
2022-09-28T07:53:38.327Z,6.18
2022-09-28T07:56:07.060Z,6.39
2022-09-28T07:58:35.335Z,6.55
2022-09-28T08:01:07.107Z,6.72
2022-09-28T08:03:34.204Z,6.91
2022-09-28T08:06:02.423Z,6.98
2022-09-28T08:08:29.877Z,7.15
2022-09-28T08:10:57.239Z,7.12
2022-09-28T08:13:27.091Z,7.37
2022-09-28T08:15:54.476Z,7.47
2022-09-28T08:18:21.147Z,7.52
2022-09-28T08:21:06.233Z,7.52
2022-09-28T08:23:32.696Z,7.58
2022-09-28T08:25:59.179Z,7.77
2022-09-28T08:28:25.692Z,7.94
2022-09-28T08:30:52.204Z,8.00
2022-09-28T08:33:21.157Z,8.09
2022-09-28T08:35:48.187Z,8.17
2022-09-28T08:38:15.214Z,8.15
2022-09-28T08:40:57.530Z,8.17
2022-09-28T08:43:45.224Z,8.40
2022-09-28T08:46:12.584Z,8.46
2022-09-28T08:49:13.385Z,8.65
2022-09-28T08:51:59.735Z,8.87
2022-09-28T08:54:39.408Z,8.98
2022-09-28T08:57:18.612Z,9.07
2022-09-28T08:59:53.367Z,9.23
2022-09-28T09:02:36.024Z,9.21
2022-09-28T09:05:10.365Z,9.35
2022-09-28T09:07:53.882Z,9.49
2022-09-28T09:10:40.509Z,9.28
2022-09-28T09:13:32.046Z,9.59
2022-09-28T09:16:14.688Z,9.52
2022-09-28T09:18:49.594Z,9.58
2022-09-28T09:21:37.782Z,9.65
2022-09-28T09:24:15.832Z,9.37
2022-09-28T09:26:43.127Z,9.29
2022-09-28T09:29:25.591Z,9.25
2022-09-28T09:32:16.805Z,9.37
2022-09-28T09:35:13.505Z,9.44
2022-09-28T09:38:06.917Z,9.49
2022-09-28T09:41:04.980Z,9.52
2022-09-28T09:43:58.577Z,9.56
2022-09-28T09:46:45.413Z,9.58
2022-09-28T09:49:25.089Z,9.55
2022-09-28T09:52:00.655Z,9.68
2022-09-28T09:54:34.256Z,9.69
2022-09-28T09:57:12.893Z,9.76
2022-09-28T09:59:41.087Z,9.99
2022-09-28T10:02:29.295Z,9.83
2022-09-28T10:05:10.519Z,10.00
2022-09-28T10:07:45.619Z,10.15
2022-09-28T10:10:22.318Z,10.04
2022-09-28T10:12:49.838Z,10.12
2022-09-28T10:15:20.800Z,10.22
2022-09-28T10:17:47.729Z,10.40
2022-09-28T10:20:15.765Z,10.43
2022-09-28T10:22:43.827Z,10.69
2022-09-28T10:25:12.672Z,10.68
2022-09-28T10:27:45.471Z,10.98
2022-09-28T10:30:18.393Z,11.04
2022-09-28T10:32:47.037Z,10.85
2022-09-28T10:35:19.404Z,10.83
2022-09-28T10:38:05.694Z,10.90
2022-09-28T10:41:02.082Z,11.09
2022-09-28T10:44:05.987Z,11.18
2022-09-28T10:46:36.005Z,11.03
2022-09-28T10:49:12.472Z,11.08
2022-09-28T10:51:45.206Z,11.21
2022-09-28T10:54:16.700Z,11.44
2022-09-28T10:56:43.536Z,11.48
2022-09-28T10:59:25.170Z,11.41
2022-09-28T11:01:57.778Z,11.36
2022-09-28T11:04:27.215Z,11.70
2022-09-28T11:09:30.852Z,12.00
2022-09-28T11:11:58.898Z,12.18
2022-09-28T11:14:30.440Z,12.43
2022-09-28T11:17:16.696Z,12.72
2022-09-28T11:19:43.711Z,12.61
2022-09-28T11:22:26.162Z,12.67
2022-09-28T11:24:53.125Z,13.08
2022-09-28T11:27:25.308Z,13.46
2022-09-28T11:29:58.837Z,12.96
2022-09-28T11:32:29.061Z,13.16
2022-09-28T11:34:59.858Z,13.18
2022-09-28T11:38:24.985Z,13.27
2022-09-28T11:41:16.021Z,13.63
2022-09-28T11:44:01.155Z,14.10
2022-09-28T11:46:39.444Z,14.30
2022-09-28T11:49:26.331Z,14.06
2022-09-28T11:51:53.206Z,14.76
2022-09-28T11:54:44.994Z,14.70
2022-09-28T11:57:15.677Z,14.71
2022-09-28T12:00:01.822Z,15.40
2022-09-28T12:02:44.429Z,14.87
2022-09-28T12:05:23.961Z,15.14
2022-09-28T12:08:00.230Z,14.81
2022-09-28T12:10:53.838Z,14.84
2022-09-28T12:13:34.194Z,15.21
2022-09-28T12:16:27.581Z,15.33
2022-09-28T12:21:37.042Z,15.42
2022-09-28T12:24:17.197Z,16.19
2022-09-28T12:26:58.854Z,16.52
2022-09-28T12:29:40.868Z,16.45
2022-09-28T12:32:32.079Z,16.75
2022-09-28T12:34:58.629Z,16.30
2022-09-28T12:37:40.211Z,16.21
2022-09-28T12:40:28.089Z,16.22
2022-09-28T12:43:06.403Z,16.19
2022-09-28T12:46:09.832Z,16.02
2022-09-28T12:52:27.230Z,15.77
2022-09-28T12:55:04.004Z,15.80
2022-09-28T12:57:57.660Z,15.41
2022-09-28T13:00:28.399Z,15.24
2022-09-28T13:02:54.873Z,15.15
2022-09-28T13:05:28.368Z,15.15
2022-09-28T13:08:09.774Z,15.46
2022-09-28T13:11:07.895Z,15.64
2022-09-28T13:13:48.639Z,15.68
2022-09-28T13:16:17.939Z,15.37
2022-09-28T13:18:50.662Z,15.36
2022-09-28T13:21:34.281Z,15.65
2022-09-28T13:24:14.828Z,15.19
2022-09-28T13:26:47.895Z,15.13
2022-09-28T13:29:16.803Z,15.07
2022-09-28T13:31:53.141Z,15.37
2022-09-28T13:34:22.242Z,15.78
2022-09-28T13:37:25.912Z,15.50
2022-09-28T13:39:57.628Z,15.40
2022-09-28T13:42:55.891Z,14.83
2022-09-28T13:45:22.338Z,14.49
2022-09-28T13:47:54.417Z,14.20
2022-09-28T13:50:25.577Z,14.09
2022-09-28T13:53:15.290Z,14.32
2022-09-28T13:56:00.686Z,14.42
2022-09-28T13:58:34.903Z,14.10
2022-09-28T14:01:11.589Z,13.87
2022-09-28T14:03:54.993Z,13.72
2022-09-28T14:06:27.036Z,13.63
2022-09-28T14:09:18.347Z,13.26
2022-09-28T14:12:01.447Z,12.90
2022-09-28T14:14:31.025Z,12.76
2022-09-28T14:17:23.491Z,12.52
2022-09-28T14:19:54.874Z,12.38
2022-09-28T14:23:02.659Z,12.27
2022-09-28T14:25:33.544Z,12.05
2022-09-28T14:28:23.231Z,11.85
2022-09-28T14:30:52.270Z,11.73
2022-09-28T14:33:18.648Z,11.64
2022-09-28T14:35:49.660Z,11.43
2022-09-28T14:38:37.806Z,11.15
2022-09-28T14:41:17.659Z,10.79
2022-09-28T14:43:44.009Z,10.54
2022-09-28T14:46:19.733Z,10.41
2022-09-28T14:49:03.702Z,10.61
2022-09-28T14:51:30.210Z,10.50
2022-09-28T14:54:01.223Z,10.29
2022-09-28T14:56:43.762Z,10.02
2022-09-28T14:59:14.882Z,9.92
2022-09-28T15:01:44.875Z,9.91
2022-09-28T15:04:12.808Z,9.90
2022-09-28T15:06:47.331Z,9.76
2022-09-28T15:09:27.084Z,9.92
2022-09-28T15:11:55.780Z,10.23
2022-09-28T15:14:23.089Z,10.40
2022-09-28T15:16:50.169Z,10.42
2022-09-28T15:19:45.307Z,10.58
2022-09-28T15:22:18.755Z,10.86
2022-09-28T15:24:53.774Z,10.95
2022-09-28T15:27:20.269Z,10.86
2022-09-28T15:30:00.245Z,10.60
2022-09-28T15:32:28.618Z,11.07
2022-09-28T15:34:57.103Z,11.28
2022-09-28T15:37:25.580Z,11.27
2022-09-28T15:39:52.766Z,11.40
2022-09-28T15:42:19.533Z,11.50
2022-09-28T15:45:08.949Z,11.40
2022-09-28T15:47:39.921Z,11.64
2022-09-28T15:50:09.162Z,11.68
2022-09-28T15:52:39.806Z,11.76
2022-09-28T15:55:33.267Z,11.82
2022-09-28T15:58:19.616Z,11.87
2022-09-28T16:00:47.167Z,11.93
2022-09-28T16:03:16.680Z,11.91
2022-09-28T16:05:50.646Z,11.96
2022-09-28T16:08:24.895Z,11.97
2022-09-28T16:11:21.519Z,12.02
2022-09-28T16:14:08.791Z,12.01
2022-09-28T16:16:41.179Z,11.80
2022-09-28T16:19:24.001Z,11.71
2022-09-28T16:21:55.788Z,11.65
2022-09-28T16:24:25.097Z,11.56
2022-09-28T16:27:03.528Z,11.52
2022-09-28T16:29:38.936Z,11.43
2022-09-28T16:32:24.661Z,11.26
2022-09-28T16:35:14.963Z,11.03
2022-09-28T16:37:42.557Z,10.86
2022-09-28T16:40:12.714Z,10.78
2022-09-28T16:42:41.946Z,10.68
2022-09-28T16:45:17.647Z,10.54
2022-09-28T16:47:44.994Z,10.39
2022-09-28T16:50:16.436Z,10.33
2022-09-28T16:53:01.847Z,10.23
2022-09-28T16:55:40.219Z,10.15
2022-09-28T16:58:07.722Z,10.04
2022-09-28T17:00:34.176Z,9.94
2022-09-28T17:03:00.688Z,9.88
2022-09-28T17:05:27.156Z,9.83
2022-09-28T17:08:03.994Z,9.84
2022-09-28T17:11:02.586Z,9.95
2022-09-28T17:13:36.083Z,10.01
2022-09-28T17:16:09.988Z,9.97
2022-09-28T17:18:38.902Z,9.95
2022-09-28T17:21:09.218Z,9.89
2022-09-28T17:23:35.665Z,9.90
2022-09-28T17:26:02.967Z,9.90
2022-09-28T17:28:35.147Z,9.86
2022-09-28T17:31:03.819Z,9.86
2022-09-28T17:33:30.339Z,9.77
2022-09-28T17:36:00.084Z,9.72
2022-09-28T17:38:27.048Z,9.70
2022-09-28T17:40:53.557Z,9.55
2022-09-28T17:43:22.104Z,9.58
2022-09-28T17:45:49.348Z,9.51
2022-09-28T17:48:17.826Z,9.57
2022-09-28T17:50:47.550Z,9.47
2022-09-28T17:53:14.621Z,9.37
2022-09-28T17:55:43.014Z,9.35
2022-09-28T17:58:19.498Z,9.30
2022-09-28T18:00:47.160Z,9.28
2022-09-28T18:03:16.464Z,9.15
2022-09-28T18:05:48.848Z,9.17
2022-09-28T18:08:20.503Z,9.06
2022-09-28T18:10:47.140Z,9.03
2022-09-28T18:13:14.150Z,9.09
2022-09-28T18:15:40.781Z,9.07
2022-09-28T18:18:09.505Z,9.04
2022-09-28T18:20:36.974Z,8.93
2022-09-28T18:23:03.786Z,8.82
2022-09-28T18:25:30.430Z,8.77
2022-09-28T18:27:57.562Z,8.58
2022-09-28T18:30:24.734Z,8.51
2022-09-28T18:32:51.272Z,8.57
2022-09-28T18:35:22.600Z,8.69
2022-09-28T18:37:50.204Z,8.68
2022-09-28T18:40:16.682Z,8.67
2022-09-28T18:42:43.262Z,8.50
2022-09-28T18:45:14.203Z,8.55
2022-09-28T18:47:40.657Z,8.56
2022-09-28T18:50:07.584Z,8.43
2022-09-28T18:52:37.887Z,8.23
2022-09-28T18:55:05.636Z,8.29
2022-09-28T18:57:33.456Z,8.17
2022-09-28T19:00:00.843Z,8.18
2022-09-28T19:02:27.538Z,8.26
2022-09-28T19:04:54.066Z,8.22
2022-09-28T19:07:21.169Z,8.13
2022-09-28T19:09:47.659Z,7.98
2022-09-28T19:12:14.222Z,8.05
2022-09-28T19:14:40.698Z,8.13
2022-09-28T19:17:07.249Z,8.14
2022-09-28T19:19:33.876Z,7.81
2022-09-28T19:22:00.466Z,7.93
2022-09-28T19:24:27.116Z,8.20
2022-09-28T19:26:53.613Z,8.19
2022-09-28T19:29:20.473Z,8.12
2022-09-28T19:31:47.201Z,7.84
2022-09-28T19:34:14.417Z,7.79
2022-09-28T19:36:41.234Z,7.55
2022-09-28T19:39:07.930Z,7.41
2022-09-28T19:41:43.453Z,7.40
2022-09-28T19:44:25.212Z,7.59
2022-09-28T19:46:53.338Z,7.76
2022-09-28T19:49:22.027Z,7.73
2022-09-28T19:52:13.770Z,7.70
2022-09-28T19:54:58.067Z,7.56
2022-09-28T19:57:30.457Z,7.55
2022-09-28T20:00:02.153Z,7.54
2022-09-28T20:02:29.609Z,7.42
2022-09-28T20:04:56.160Z,7.55
2022-09-28T20:07:22.832Z,7.57
2022-09-28T20:09:49.277Z,7.58
2022-09-28T20:12:15.788Z,7.53
2022-09-28T20:14:42.334Z,7.54
2022-09-28T20:17:09.657Z,7.35
2022-09-28T20:19:36.277Z,7.42
2022-09-28T20:22:03.368Z,7.40
2022-09-28T20:24:31.043Z,7.26
2022-09-28T20:26:58.014Z,7.30
2022-09-28T20:29:24.889Z,7.30
2022-09-28T20:31:51.879Z,7.19
2022-09-28T20:34:18.443Z,7.21
2022-09-28T20:36:44.986Z,7.23
2022-09-28T20:39:11.851Z,7.13
2022-09-28T20:41:38.466Z,7.19
2022-09-28T20:44:06.524Z,7.14
2022-09-28T20:46:36.912Z,7.19
2022-09-28T20:49:04.472Z,7.20
2022-09-28T20:51:31.134Z,7.22
2022-09-28T20:53:58.932Z,7.10
2022-09-28T20:56:31.508Z,7.10
2022-09-28T20:58:57.993Z,7.05
2022-09-28T21:01:26.303Z,7.07
2022-09-28T21:03:54.777Z,7.14
2022-09-28T21:06:23.386Z,7.12
2022-09-28T21:08:50.060Z,7.09
2022-09-28T21:11:18.287Z,7.04
2022-09-28T21:13:45.197Z,7.03
2022-09-28T21:16:13.511Z,7.00
2022-09-28T21:18:40.693Z,7.01
2022-09-28T21:21:08.771Z,6.91
2022-09-28T21:23:36.138Z,7.02
2022-09-28T21:26:10.932Z,6.97
2022-09-28T21:28:37.981Z,6.98
2022-09-28T21:31:06.339Z,6.87
2022-09-28T21:33:33.333Z,6.90
2022-09-28T21:36:04.463Z,6.59
2022-09-28T21:38:30.966Z,6.01
2022-09-28T21:40:58.507Z,6.11
2022-09-28T21:43:26.565Z,6.47
2022-09-28T21:45:53.929Z,6.64
2022-09-28T21:48:21.880Z,6.61
2022-09-28T21:50:59.563Z,6.70
2022-09-28T21:53:28.939Z,6.76
2022-09-28T21:55:56.220Z,6.69
2022-09-28T21:58:25.161Z,6.60
2022-09-28T22:00:58.161Z,6.64
2022-09-28T22:03:25.764Z,6.63
2022-09-28T22:05:52.378Z,6.49
2022-09-28T22:08:19.636Z,6.49
2022-09-28T22:10:46.144Z,6.43
2022-09-28T22:13:12.615Z,6.43
2022-09-28T22:15:39.132Z,6.44
2022-09-28T22:18:05.587Z,6.36
2022-09-28T22:20:32.039Z,6.30
2022-09-28T22:22:58.488Z,6.35
2022-09-28T22:25:24.939Z,6.31
2022-09-28T22:27:51.412Z,6.24
2022-09-28T22:30:17.883Z,6.16
2022-09-28T22:32:44.356Z,6.26
2022-09-28T22:35:13.831Z,6.24
2022-09-28T22:37:40.300Z,6.25
2022-09-28T22:40:07.165Z,6.16
2022-09-28T22:42:33.661Z,6.16
2022-09-28T22:45:00.261Z,6.21
2022-09-28T22:47:27.072Z,6.23
2022-09-28T22:49:53.552Z,6.22
2022-09-28T22:52:20.068Z,6.22
2022-09-28T22:54:48.154Z,6.18
2022-09-28T22:57:14.620Z,6.21
2022-09-28T22:59:41.092Z,6.12
2022-09-28T23:02:07.587Z,6.05
2022-09-28T23:04:34.122Z,6.05
2022-09-28T23:07:00.595Z,6.10
2022-09-28T23:09:27.156Z,6.07
2022-09-28T23:11:53.613Z,6.08
2022-09-28T23:14:20.083Z,6.05
2022-09-28T23:16:46.615Z,6.01
2022-09-28T23:19:13.074Z,6.04
2022-09-28T23:21:39.581Z,6.09
2022-09-28T23:24:06.095Z,5.95
2022-09-28T23:26:34.265Z,5.92
2022-09-28T23:29:00.718Z,5.67
2022-09-28T23:31:29.613Z,5.76
2022-09-28T23:34:05.873Z,5.79
2022-09-28T23:36:32.873Z,5.71
2022-09-28T23:38:59.975Z,5.66
2022-09-28T23:41:26.460Z,5.71
2022-09-28T23:43:52.937Z,5.81
2022-09-28T23:46:20.989Z,5.90
2022-09-28T23:48:48.447Z,5.99
2022-09-28T23:51:14.963Z,5.98
2022-09-28T23:53:41.426Z,5.95
2022-09-28T23:56:08.025Z,5.94
2022-09-28T23:58:34.503Z,6.00
